Terminal Aerodrome Forecast
Issued by NWS Albany, NY

Home | Current Version | Previous Version | Text Only | Print | Product List | Glossary On
Versions: 1 2 3 4 5 6 7 8 9 10 11 12 13 14 15 16 17 18 19 20 21 22
000
FTUS41 KALY 012018 AAB
TAFALB
TAF AMD
KALB 012018Z 0120/0218 15005KT P6SM SCT012 BKN025 OVC040
      TEMPO 0120/0124 5SM -DZ BR FEW012 SCT025 OVC040
     FM020000 15008KT 4SM -DZ BR OVC020
     FM020600 17006KT 6SM BR OVC020
     FM021400 15008KT 4SM -RA OVC020=

USA.gov is the U.S. government's official web portal to all federal, state and local government web resources and services.